Time;durP1;ratioP1;P1;durP2;ratioP2;P2;SDS_P1;SDS_P2;PMS_P1;PMS_P2;Temp;Humidity;BMP_temperature;BMP_pressure;BME280_temperature;BME280_humidity;BME280_pressure;Samples;Min_cycle;Max_cycle;Signal;HPM_P1;HPM_P2
2021/06/27 00:00:24;;;;;;;15.88;11.25;;;15.50;99.90;;;;;;5069498;28;20613;-71
2021/06/27 00:02:52;;;;;;;13.77;10.75;;;15.50;99.90;;;;;;5070782;28;20230;-72
2021/06/27 00:05:25;;;;;;;14.18;10.35;;;15.60;99.90;;;;;;5064633;28;20207;-71
2021/06/27 00:07:52;;;;;;;15.20;12.20;;;15.70;99.90;;;;;;5066303;28;20222;-71
2021/06/27 00:10:23;;;;;;;14.20;11.17;;;15.90;99.90;;;;;;5070333;28;20598;-72
2021/06/27 00:12:50;;;;;;;16.25;10.82;;;16.00;99.90;;;;;;5071517;28;20285;-71
2021/06/27 00:15:19;;;;;;;16.50;10.02;;;15.50;99.90;;;;;;5069637;28;20205;-73
2021/06/27 00:17:47;;;;;;;16.63;11.13;;;15.40;99.90;;;;;;5071686;28;20660;-72
2021/06/27 00:20:17;;;;;;;13.85;11.50;;;15.40;99.90;;;;;;5070782;28;20636;-68
2021/06/27 00:22:45;;;;;;;16.37;11.80;;;15.40;99.90;;;;;;5070463;28;20221;-68
2021/06/27 00:25:14;;;;;;;16.90;12.70;;;15.60;99.90;;;;;;5071955;28;20195;-69
2021/06/27 00:27:41;;;;;;;18.23;12.90;;;15.80;99.90;;;;;;5068808;28;20209;-69
2021/06/27 00:30:10;;;;;;;17.83;14.03;;;15.90;99.90;;;;;;5070521;28;20206;-69
2021/06/27 00:32:38;;;;;;;17.30;13.87;;;16.00;99.90;;;;;;5072189;28;20198;-68
2021/06/27 00:35:06;;;;;;;17.47;12.50;;;16.00;99.90;;;;;;5052594;28;20211;-68
2021/06/27 00:37:33;;;;;;;14.48;10.50;;;16.00;99.90;;;;;;5053387;28;20195;-68
2021/06/27 00:40:02;;;;;;;15.98;11.38;;;15.90;99.90;;;;;;5055670;28;20198;-68
2021/06/27 00:42:29;;;;;;;18.13;13.37;;;15.50;99.90;;;;;;5053692;28;20401;-69
2021/06/27 00:44:56;;;;;;;18.65;13.07;;;15.60;99.90;;;;;;5056659;28;20652;-69
2021/06/27 00:47:29;;;;;;;15.63;11.63;;;15.70;99.90;;;;;;5053062;28;20574;-68
2021/06/27 00:49:56;;;;;;;15.17;10.60;;;15.70;99.90;;;;;;5066894;28;20191;-69
2021/06/27 00:52:23;;;;;;;17.37;11.67;;;15.40;99.90;;;;;;5072243;28;20301;-68
2021/06/27 00:54:50;;;;;;;15.05;11.77;;;15.10;99.90;;;;;;5052889;28;20206;-70
2021/06/27 00:57:19;;;;;;;14.10;10.13;;;15.00;99.90;;;;;;5052331;28;20209;-68
2021/06/27 00:59:46;;;;;;;17.70;11.27;;;14.80;99.90;;;;;;5069097;28;20202;-68
2021/06/27 01:02:13;;;;;;;15.90;10.63;;;14.60;99.90;;;;;;5072114;28;20296;-68
2021/06/27 01:04:41;;;;;;;14.17;10.83;;;14.70;99.90;;;;;;5069832;28;20209;-68
2021/06/27 01:07:09;;;;;;;16.70;11.98;;;14.80;99.90;;;;;;5068324;28;20198;-68
2021/06/27 01:09:36;;;;;;;18.00;12.00;;;14.90;99.90;;;;;;5055888;28;20203;-68
2021/06/27 01:12:03;;;;;;;16.40;11.70;;;14.90;99.90;;;;;;5062188;28;20702;-68
2021/06/27 01:14:32;;;;;;;19.20;13.53;;;14.90;99.90;;;;;;5071414;28;20207;-68
2021/06/27 01:16:59;;;;;;;21.93;13.23;;;14.90;99.90;;;;;;5053695;28;20290;-68
2021/06/27 01:19:31;;;;;;;19.47;12.87;;;14.80;99.90;;;;;;5067133;28;20214;-68
2021/06/27 01:21:59;;;;;;;16.13;12.50;;;14.90;99.90;;;;;;5071439;28;20198;-68
2021/06/27 01:24:26;;;;;;;17.52;14.30;;;15.00;99.90;;;;;;5055876;28;20317;-68
2021/06/27 01:26:53;;;;;;;19.03;13.30;;;15.00;99.90;;;;;;5069955;28;20203;-68
2021/06/27 01:29:19;;;;;;;18.67;14.27;;;14.90;99.90;;;;;;5065351;28;20206;-69
2021/06/27 01:31:47;;;;;;;22.10;14.40;;;15.00;99.90;;;;;;5051140;28;20566;-68
2021/06/27 01:34:15;;;;;;;17.03;13.07;;;15.00;99.90;;;;;;5063195;28;20226;-68
2021/06/27 01:36:42;;;;;;;19.50;13.90;;;15.00;99.90;;;;;;5051925;28;20191;-68
2021/06/27 01:39:10;;;;;;;20.20;13.50;;;15.00;99.90;;;;;;5059040;28;20666;-68
2021/06/27 01:41:37;;;;;;;22.03;14.53;;;14.80;99.90;;;;;;5055328;28;20206;-68
2021/06/27 01:44:04;;;;;;;18.17;13.07;;;14.70;99.90;;;;;;5061341;28;20218;-68
2021/06/27 01:46:31;;;;;;;20.87;14.03;;;14.70;99.90;;;;;;5059241;28;20201;-69
2021/06/27 01:48:58;;;;;;;17.20;13.10;;;14.70;99.90;;;;;;5054993;28;20290;-68
2021/06/27 01:51:25;;;;;;;20.40;14.00;;;14.80;99.90;;;;;;5062790;28;20209;-68
2021/06/27 01:53:52;;;;;;;19.53;13.97;;;14.80;99.90;;;;;;5065381;28;20198;-68
2021/06/27 01:56:20;;;;;;;18.33;13.73;;;14.90;99.90;;;;;;5070787;28;20486;-68
2021/06/27 01:58:50;;;;;;;21.10;15.17;;;14.90;99.90;;;;;;5070256;28;20569;-68
2021/06/27 02:01:20;;;;;;;18.93;13.73;;;15.00;99.90;;;;;;5064811;28;20217;-68
2021/06/27 02:03:49;;;;;;;16.97;11.27;;;15.00;99.90;;;;;;5066893;28;20222;-68
2021/06/27 02:06:17;;;;;;;19.27;10.20;;;14.50;99.90;;;;;;5065098;28;20568;-68
2021/06/27 02:08:44;;;;;;;21.73;10.50;;;14.00;99.90;;;;;;5066929;28;20205;-69
2021/06/27 02:11:13;;;;;;;22.03;9.90;;;13.80;99.90;;;;;;5109349;23;20227;-70
2021/06/27 02:13:42;;;;;;;20.97;11.53;;;13.70;99.90;;;;;;5058858;28;20199;-70
2021/06/27 02:16:09;;;;;;;25.07;12.50;;;13.70;99.90;;;;;;5048541;28;20293;-71
2021/06/27 02:18:39;;;;;;;19.53;11.93;;;13.80;99.90;;;;;;5051289;28;20651;-70
2021/06/27 02:21:10;;;;;;;18.83;12.00;;;13.90;99.90;;;;;;5039077;28;20205;-71
2021/06/27 02:23:37;;;;;;;19.70;11.73;;;14.00;99.90;;;;;;5050635;28;20284;-70
2021/06/27 02:26:05;;;;;;;18.20;12.47;;;14.10;99.90;;;;;;5051221;28;20207;-70
2021/06/27 02:28:33;;;;;;;16.27;12.13;;;14.20;99.90;;;;;;5050660;28;20199;-71
2021/06/27 02:31:03;;;;;;;18.30;11.53;;;14.30;99.90;;;;;;5050269;28;20294;-71
2021/06/27 02:33:30;;;;;;;19.23;12.00;;;14.30;99.90;;;;;;5050628;28;20199;-70
2021/06/27 02:35:58;;;;;;;18.13;12.77;;;14.40;99.90;;;;;;5050582;28;20290;-71
2021/06/27 02:38:25;;;;;;;17.90;13.63;;;14.50;99.90;;;;;;5050681;28;20206;-70
2021/06/27 02:40:54;;;;;;;17.70;13.03;;;14.60;99.90;;;;;;5049873;28;20211;-70
2021/06/27 02:43:21;;;;;;;20.37;11.90;;;14.70;99.90;;;;;;5050363;28;20582;-70
2021/06/27 02:45:48;;;;;;;16.40;12.20;;;14.50;99.90;;;;;;5049515;28;20203;-71
2021/06/27 02:48:16;;;;;;;17.33;12.93;;;14.60;99.90;;;;;;5053989;28;20203;-71
2021/06/27 02:50:44;;;;;;;19.90;13.33;;;14.70;99.90;;;;;;5053894;28;20199;-70
2021/06/27 02:53:11;;;;;;;17.97;13.53;;;14.70;99.90;;;;;;5053764;28;20327;-71
2021/06/27 02:55:38;;;;;;;19.13;13.60;;;14.70;99.90;;;;;;5054002;28;20213;-70
2021/06/27 02:58:06;;;;;;;18.50;14.30;;;14.70;99.90;;;;;;5053860;28;20665;-71
2021/06/27 03:00:33;;;;;;;20.43;15.87;;;14.70;99.90;;;;;;5053903;28;20209;-70
2021/06/27 03:03:01;;;;;;;18.60;13.10;;;14.60;99.90;;;;;;5053603;28;20206;-70
2021/06/27 03:05:29;;;;;;;18.93;11.80;;;14.30;99.90;;;;;;5053598;28;20203;-70
2021/06/27 03:07:57;;;;;;;17.10;12.60;;;14.40;99.90;;;;;;5053555;28;20648;-70
2021/06/27 03:10:24;;;;;;;17.30;10.87;;;14.40;99.90;;;;;;5053655;28;20205;-71
2021/06/27 03:12:51;;;;;;;19.63;12.47;;;14.10;99.90;;;;;;5053671;28;20225;-70
2021/06/27 03:15:20;;;;;;;19.10;13.27;;;13.90;99.90;;;;;;5053224;28;20209;-70
2021/06/27 03:17:48;;;;;;;18.97;13.53;;;13.90;99.90;;;;;;5054150;28;20709;-71
2021/06/27 03:20:17;;;;;;;17.87;12.70;;;13.90;99.90;;;;;;5052861;28;20626;-70
2021/06/27 03:22:47;;;;;;;18.57;13.53;;;14.00;99.90;;;;;;5053656;28;20786;-71
2021/06/27 03:25:15;;;;;;;19.17;12.47;;;14.20;99.90;;;;;;5053272;28;20223;-71
2021/06/27 03:27:42;;;;;;;18.07;12.73;;;14.40;99.90;;;;;;5053648;28;20207;-71
2021/06/27 03:30:11;;;;;;;15.20;12.40;;;14.50;99.90;;;;;;5052639;28;20252;-70
2021/06/27 03:32:38;;;;;;;18.27;13.27;;;14.70;99.90;;;;;;5053316;28;20642;-70
2021/06/27 03:35:06;;;;;;;17.80;12.87;;;14.60;99.90;;;;;;5053377;28;20202;-70
2021/06/27 03:37:33;;;;;;;19.03;13.07;;;14.50;99.90;;;;;;5039515;28;20203;-71
2021/06/27 03:40:01;;;;;;;17.47;13.70;;;14.50;99.90;;;;;;5052672;28;20203;-70
2021/06/27 03:42:29;;;;;;;18.40;13.70;;;14.60;99.90;;;;;;5053537;28;20231;-70
2021/06/27 03:44:55;;;;;;;19.47;13.77;;;14.50;99.90;;;;;;5052700;28;20262;-71
2021/06/27 03:47:23;;;;;;;19.93;12.13;;;14.40;99.90;;;;;;5052619;28;20225;-71
2021/06/27 03:49:50;;;;;;;20.70;11.80;;;14.50;99.90;;;;;;5052489;28;20207;-71
2021/06/27 03:52:17;;;;;;;20.73;12.10;;;14.50;99.90;;;;;;5052885;28;20671;-71
2021/06/27 03:54:44;;;;;;;17.70;12.70;;;14.60;99.90;;;;;;5052753;28;20199;-71
2021/06/27 03:57:12;;;;;;;18.67;13.13;;;14.90;99.90;;;;;;5053034;28;20206;-70
2021/06/27 03:59:39;;;;;;;20.33;13.20;;;15.10;99.90;;;;;;5049856;28;20221;-71
2021/06/27 04:02:06;;;;;;;17.55;12.82;;;15.20;99.90;;;;;;5045063;28;20230;-71
2021/06/27 04:04:33;;;;;;;21.77;13.67;;;15.10;99.90;;;;;;5050102;28;20663;-71
2021/06/27 04:07:00;;;;;;;17.07;12.70;;;15.10;99.90;;;;;;5055705;28;20199;-70
2021/06/27 04:09:27;;;;;;;16.80;12.77;;;15.30;99.90;;;;;;5047278;28;20666;-70
2021/06/27 04:11:55;;;;;;;18.80;13.70;;;15.60;99.90;;;;;;5048317;28;20231;-71
2021/06/27 04:14:23;;;;;;;16.15;12.00;;;16.80;99.90;;;;;;5053100;28;20668;-71
2021/06/27 04:16:50;;;;;;;14.43;11.68;;;18.30;99.90;;;;;;5054083;28;20214;-71
2021/06/27 04:19:16;;;;;;;13.75;11.30;;;19.30;99.90;;;;;;5050782;28;20245;-70
2021/06/27 04:21:43;;;;;;;15.27;11.20;;;19.90;99.90;;;;;;5051264;28;20203;-71
2021/06/27 04:24:10;;;;;;;13.93;10.65;;;19.30;99.90;;;;;;5050663;28;20242;-71
2021/06/27 04:26:37;;;;;;;15.90;11.85;;;18.20;99.90;;;;;;5052373;28;20205;-71
2021/06/27 04:29:05;;;;;;;14.38;10.90;;;17.40;99.90;;;;;;5050921;28;20205;-71
2021/06/27 04:31:33;;;;;;;14.70;11.18;;;16.80;99.90;;;;;;5051722;28;20264;-71
2021/06/27 04:34:00;;;;;;;14.73;11.45;;;16.80;99.90;;;;;;5051962;28;20195;-71
2021/06/27 04:36:27;;;;;;;15.77;11.57;;;16.60;99.90;;;;;;5052213;28;20579;-71
2021/06/27 04:38:54;;;;;;;14.93;11.10;;;17.00;99.90;;;;;;5052200;28;20207;-71
2021/06/27 04:41:20;;;;;;;18.73;12.60;;;17.40;99.90;;;;;;5051515;28;20298;-72
2021/06/27 04:43:47;;;;;;;15.38;12.05;;;16.90;99.90;;;;;;5051806;28;20233;-71
2021/06/27 04:46:14;;;;;;;16.08;10.85;;;16.80;99.90;;;;;;5051985;28;20580;-71
2021/06/27 04:48:42;;;;;;;16.00;11.55;;;16.60;99.90;;;;;;5051922;28;20209;-71
2021/06/27 04:51:09;;;;;;;16.40;13.20;;;16.60;99.90;;;;;;5051447;28;20198;-71
2021/06/27 04:53:36;;;;;;;13.52;11.32;;;16.60;99.90;;;;;;5051534;28;20518;-71
2021/06/27 04:56:03;;;;;;;15.68;10.68;;;16.80;99.90;;;;;;5052049;28;20642;-71
2021/06/27 04:58:30;;;;;;;13.18;10.65;;;16.70;99.90;;;;;;5050818;28;20195;-74
2021/06/27 05:00:57;;;;;;;15.70;11.77;;;16.70;99.90;;;;;;5051823;28;20199;-73
2021/06/27 05:03:23;;;;;;;16.00;11.27;;;16.90;99.90;;;;;;5040314;28;20202;-74
2021/06/27 05:05:52;;;;;;;15.82;11.60;;;17.20;99.90;;;;;;5052197;28;20313;-73
2021/06/27 05:08:18;;;;;;;13.52;11.32;;;17.60;99.90;;;;;;5051227;28;20191;-73
2021/06/27 05:10:45;;;;;;;15.48;11.60;;;17.60;99.90;;;;;;5051768;28;20641;-74
2021/06/27 05:13:12;;;;;;;16.45;11.25;;;18.10;99.90;;;;;;5051268;28;20206;-74
2021/06/27 05:15:39;;;;;;;15.43;11.32;;;18.20;99.90;;;;;;5052487;28;20191;-74
2021/06/27 05:18:06;;;;;;;14.65;10.45;;;17.90;99.90;;;;;;5051739;28;20282;-73
2021/06/27 05:20:33;;;;;;;15.95;10.48;;;17.90;99.90;;;;;;5052106;28;20207;-73
2021/06/27 05:23:01;;;;;;;14.30;10.57;;;18.10;99.90;;;;;;5051632;28;20290;-73
2021/06/27 05:25:28;;;;;;;13.43;10.63;;;18.70;99.90;;;;;;5063264;28;20225;-74
2021/06/27 05:27:55;;;;;;;11.57;10.00;;;19.10;99.90;;;;;;5053805;28;20206;-73
2021/06/27 05:30:22;;;;;;;11.88;9.77;;;18.90;99.90;;;;;;5052198;28;20229;-73
2021/06/27 05:32:49;;;;;;;11.57;9.13;;;18.60;99.90;;;;;;5051884;28;20221;-73
2021/06/27 05:35:16;;;;;;;10.52;8.95;;;18.60;99.90;;;;;;5051862;28;20289;-73
2021/06/27 05:37:43;;;;;;;15.93;9.75;;;18.60;99.90;;;;;;5051944;28;20207;-73
2021/06/27 05:40:12;;;;;;;12.93;9.93;;;18.80;99.90;;;;;;5051306;28;20205;-73
2021/06/27 05:42:39;;;;;;;11.85;9.77;;;18.80;99.90;;;;;;5051900;28;20416;-74
2021/06/27 05:45:07;;;;;;;11.98;10.38;;;19.40;99.90;;;;;;5051581;28;20250;-73
2021/06/27 05:47:34;;;;;;;11.20;10.00;;;20.60;99.90;;;;;;5051509;28;20195;-74
2021/06/27 05:50:01;;;;;;;15.15;10.77;;;19.60;99.90;;;;;;5051841;28;20209;-73
2021/06/27 05:52:28;;;;;;;16.52;11.07;;;19.10;99.90;;;;;;5051518;28;20292;-73
2021/06/27 05:54:55;;;;;;;14.70;10.98;;;19.10;99.90;;;;;;5050004;28;20294;-73
2021/06/27 05:57:23;;;;;;;16.42;12.00;;;19.20;99.90;;;;;;5051896;28;20217;-73
2021/06/27 05:59:50;;;;;;;14.57;10.82;;;19.70;99.90;;;;;;5051009;28;20217;-73
2021/06/27 06:02:17;;;;;;;16.15;11.45;;;19.60;99.90;;;;;;5051392;28;20295;-73
2021/06/27 06:04:44;;;;;;;14.65;11.00;;;19.30;99.90;;;;;;5050509;28;20677;-73
2021/06/27 06:07:10;;;;;;;17.35;11.13;;;19.20;99.90;;;;;;5051298;28;20226;-74
2021/06/27 06:09:37;;;;;;;14.25;10.35;;;19.30;99.90;;;;;;5051131;28;20195;-73
2021/06/27 06:12:05;;;;;;;16.85;9.90;;;19.30;99.90;;;;;;5051187;28;20199;-73
2021/06/27 06:14:33;;;;;;;12.25;9.32;;;19.70;99.90;;;;;;5051016;28;20199;-74
2021/06/27 06:17:00;;;;;;;12.07;9.63;;;19.60;99.90;;;;;;5050947;28;20202;-73
2021/06/27 06:19:27;;;;;;;13.70;9.95;;;19.70;99.90;;;;;;5050698;28;20203;-73
2021/06/27 06:21:54;;;;;;;14.02;9.18;;;19.70;99.90;;;;;;5053300;28;20672;-74
2021/06/27 06:24:21;;;;;;;10.82;8.93;;;19.80;99.90;;;;;;5054641;28;20218;-74
2021/06/27 06:26:48;;;;;;;11.63;8.70;;;19.80;99.90;;;;;;5055199;28;20736;-74
2021/06/27 06:29:15;;;;;;;12.45;8.77;;;19.70;99.90;;;;;;5053360;28;20203;-76
2021/06/27 06:31:43;;;;;;;16.15;9.02;;;19.60;99.90;;;;;;5054730;28;20195;-75
2021/06/27 06:34:10;;;;;;;12.48;8.77;;;19.90;99.90;;;;;;5054866;28;20209;-76
2021/06/27 06:36:37;;;;;;;11.70;8.95;;;20.10;99.90;;;;;;5055538;28;20645;-75
2021/06/27 06:39:05;;;;;;;11.45;8.52;;;20.10;99.90;;;;;;5054948;28;20195;-75
2021/06/27 06:41:32;;;;;;;9.70;8.27;;;20.30;99.90;;;;;;5054449;28;20192;-75
2021/06/27 06:43:59;;;;;;;35.35;29.33;;;20.20;99.90;;;;;;5055008;28;20667;-75
2021/06/27 06:46:26;;;;;;;12.38;8.45;;;20.20;99.90;;;;;;5054885;28;20223;-75
2021/06/27 06:48:56;;;;;;;11.32;8.20;;;20.30;99.90;;;;;;5054855;28;20581;-75
2021/06/27 06:51:23;;;;;;;11.45;7.40;;;20.40;99.90;;;;;;5054187;28;20253;-76
2021/06/27 06:53:51;;;;;;;10.48;7.45;;;20.10;99.90;;;;;;5054725;28;20589;-75
2021/06/27 06:56:18;;;;;;;10.57;7.95;;;20.20;99.90;;;;;;5054670;28;20563;-77
2021/06/27 06:58:45;;;;;;;12.27;8.25;;;20.50;99.90;;;;;;5054798;28;20257;-78
2021/06/27 07:01:11;;;;;;;9.23;7.60;;;20.50;99.90;;;;;;5054466;28;20211;-76
2021/06/27 07:03:38;;;;;;;8.27;7.35;;;20.60;99.90;;;;;;5042468;28;20200;-77
2021/06/27 07:06:06;;;;;;;9.35;7.95;;;20.50;99.90;;;;;;5061927;28;20232;-75
2021/06/27 07:08:33;;;;;;;10.63;7.57;;;20.50;99.90;;;;;;5068480;28;20208;-75
2021/06/27 07:11:00;;;;;;;9.63;7.72;;;20.40;99.90;;;;;;5068686;28;20241;-75
2021/06/27 07:13:27;;;;;;;7.82;7.03;;;20.60;99.90;;;;;;5054320;28;20199;-75
2021/06/27 07:15:54;;;;;;;6.80;6.10;;;20.60;99.90;;;;;;5055051;28;20199;-75
2021/06/27 07:18:21;;;;;;;8.93;6.68;;;20.70;99.90;;;;;;5054384;28;20289;-75
2021/06/27 07:20:48;;;;;;;8.50;7.00;;;20.70;99.90;;;;;;5054080;28;20195;-75
2021/06/27 07:23:17;;;;;;;8.25;7.15;;;20.60;99.90;;;;;;5054221;28;20577;-75
2021/06/27 07:25:45;;;;;;;7.28;6.57;;;20.60;99.90;;;;;;5054493;28;20249;-75
2021/06/27 07:28:12;;;;;;;8.65;6.65;;;20.90;99.90;;;;;;5053942;28;20209;-75
2021/06/27 07:30:39;;;;;;;9.25;6.78;;;20.90;99.90;;;;;;5053943;28;20209;-75
2021/06/27 07:33:08;;;;;;;12.20;9.02;;;20.90;99.90;;;;;;5054017;28;20206;-75
2021/06/27 07:35:35;;;;;;;9.60;7.75;;;21.00;99.90;;;;;;5053820;28;20195;-75
2021/06/27 07:38:02;;;;;;;9.13;7.15;;;21.10;99.90;;;;;;5054352;28;20207;-75
2021/06/27 07:40:30;;;;;;;10.02;7.45;;;21.30;99.90;;;;;;5053874;28;20675;-75
2021/06/27 07:42:57;;;;;;;9.15;7.10;;;21.20;99.90;;;;;;5053745;28;20211;-75
2021/06/27 07:45:23;;;;;;;9.63;7.38;;;21.30;99.90;;;;;;5054091;28;20502;-75
2021/06/27 07:47:50;;;;;;;9.13;7.30;;;21.50;99.90;;;;;;5053961;28;20202;-75
2021/06/27 07:50:17;;;;;;;7.70;7.00;;;21.70;99.90;;;;;;5053950;28;20207;-75
2021/06/27 07:52:44;;;;;;;7.78;6.97;;;21.70;99.90;;;;;;5053707;28;20595;-75
2021/06/27 07:55:11;;;;;;;8.00;6.72;;;21.50;99.90;;;;;;5053853;28;20287;-76
2021/06/27 07:57:40;;;;;;;7.88;6.65;;;21.50;99.90;;;;;;5053324;28;20201;-76
2021/06/27 08:00:10;;;;;;;9.18;6.75;;;21.70;99.90;;;;;;5053572;28;20246;-76
2021/06/27 08:02:37;;;;;;;8.13;6.72;;;21.70;99.90;;;;;;5049934;28;20654;-76
2021/06/27 08:05:05;;;;;;;7.38;6.57;;;21.70;99.90;;;;;;5033612;28;20277;-76
2021/06/27 08:07:32;;;;;;;6.97;6.28;;;21.90;99.90;;;;;;5046224;28;20202;-76
2021/06/27 08:09:58;;;;;;;6.93;6.10;;;21.90;99.90;;;;;;5052452;28;20305;-76
2021/06/27 08:12:25;;;;;;;6.05;5.45;;;22.10;99.90;;;;;;5073498;22;21512;-75
2021/06/27 08:14:54;;;;;;;8.90;6.80;;;22.20;99.90;;;;;;5072896;28;20201;-75
2021/06/27 08:17:20;;;;;;;8.65;6.60;;;22.50;99.90;;;;;;5071240;28;20639;-75
2021/06/27 08:19:47;;;;;;;6.82;6.13;;;22.50;99.90;;;;;;5053110;28;20199;-75
2021/06/27 08:22:14;;;;;;;7.47;6.70;;;22.60;99.90;;;;;;5059303;28;20632;-75
2021/06/27 08:24:41;;;;;;;7.38;6.68;;;22.70;99.90;;;;;;5072918;28;20202;-75
2021/06/27 08:27:09;;;;;;;8.20;6.70;;;22.70;99.90;;;;;;5060934;28;20205;-75
2021/06/27 08:29:36;;;;;;;7.53;6.35;;;22.70;99.90;;;;;;5052666;28;20203;-75
2021/06/27 08:32:05;;;;;;;8.25;6.18;;;22.90;99.90;;;;;;5056149;28;20205;-75
2021/06/27 08:34:32;;;;;;;6.85;6.13;;;23.00;99.90;;;;;;5069395;28;20648;-75
2021/06/27 08:36:59;;;;;;;7.20;5.90;;;23.20;99.90;;;;;;5052966;28;20551;-74
2021/06/27 08:39:26;;;;;;;6.50;5.75;;;23.30;99.90;;;;;;5054101;28;20211;-74
2021/06/27 08:41:54;;;;;;;7.60;6.07;;;23.50;99.90;;;;;;5069080;28;20196;-74
2021/06/27 08:44:22;;;;;;;7.30;6.45;;;23.40;99.90;;;;;;5071092;28;20318;-74
2021/06/27 08:46:51;;;;;;;6.65;5.90;;;23.50;99.90;;;;;;5065558;28;20221;-74
2021/06/27 08:49:21;;;;;;;7.50;6.20;;;23.50;99.90;;;;;;5070270;28;20210;-75
2021/06/27 08:51:48;;;;;;;6.97;6.28;;;23.70;99.90;;;;;;5064852;28;20209;-74
2021/06/27 08:54:15;;;;;;;9.07;6.30;;;23.90;99.90;;;;;;5056554;28;20198;-74
2021/06/27 08:56:42;;;;;;;6.82;5.93;;;24.20;99.90;;;;;;5058754;28;20187;-75
2021/06/27 08:59:08;;;;;;;8.10;6.13;;;24.40;99.90;;;;;;5051946;28;20245;-74
2021/06/27 09:01:35;;;;;;;6.40;5.78;;;24.70;99.90;;;;;;5069389;28;20619;-74
2021/06/27 09:04:02;;;;;;;6.45;5.85;;;24.80;99.90;;;;;;5071739;28;20194;-75
2021/06/27 09:06:33;;;;;;;6.32;5.45;;;25.10;99.90;;;;;;5071438;28;20211;-74
2021/06/27 09:09:10;;;;;;;6.43;5.50;;;25.20;99.90;;;;;;5070552;28;20220;-75
2021/06/27 09:11:37;;;;;;;6.25;5.75;;;24.90;99.90;;;;;;5069217;28;20206;-75
2021/06/27 09:14:05;;;;;;;6.35;5.45;;;25.00;99.90;;;;;;5051470;28;20207;-75
2021/06/27 09:16:32;;;;;;;8.23;5.70;;;25.10;99.90;;;;;;5051861;28;20206;-75
2021/06/27 09:19:01;;;;;;;6.88;5.72;;;25.00;99.90;;;;;;5071163;28;20689;-75
2021/06/27 09:21:31;;;;;;;6.07;5.28;;;25.00;99.90;;;;;;5070739;28;20648;-74
2021/06/27 09:23:57;;;;;;;6.60;5.60;;;25.10;99.90;;;;;;5061872;28;20558;-75
2021/06/27 09:26:30;;;;;;;6.43;5.85;;;25.30;99.90;;;;;;5051478;28;20333;-74
2021/06/27 09:28:58;;;;;;;7.75;5.70;;;25.00;99.90;;;;;;5064368;28;20203;-74
2021/06/27 09:31:36;;;;;;;6.07;5.30;;;24.80;99.90;;;;;;5059549;28;20212;-74
2021/06/27 09:34:05;;;;;;;5.80;5.30;;;25.20;99.90;;;;;;5062252;28;20198;-74
2021/06/27 09:36:33;;;;;;;5.85;5.35;;;25.10;99.90;;;;;;5070860;28;20191;-75
2021/06/27 09:39:08;;;;;;;6.55;5.18;;;25.20;99.90;;;;;;5053183;28;20493;-74
2021/06/27 09:41:36;;;;;;;5.35;4.90;;;25.50;99.90;;;;;;5058226;28;20569;-74
2021/06/27 09:44:05;;;;;;;5.60;5.10;;;26.20;99.90;;;;;;5053666;28;20202;-75
2021/06/27 09:46:35;;;;;;;6.13;5.53;;;26.00;99.90;;;;;;5056322;28;20310;-74
2021/06/27 09:49:05;;;;;;;4.95;4.50;;;26.40;99.90;;;;;;5068000;28;20253;-74
2021/06/27 09:51:35;;;;;;;8.68;5.38;;;26.40;99.90;;;;;;5070240;28;20293;-74
2021/06/27 09:54:03;;;;;;;5.00;4.60;;;26.60;99.90;;;;;;5070011;28;20202;-74
2021/06/27 09:56:38;;;;;;;5.68;4.97;;;26.90;99.90;;;;;;5066626;28;20201;-74
2021/06/27 09:59:06;;;;;;;4.90;4.53;;;27.40;99.90;;;;;;5060341;28;20194;-74
2021/06/27 10:01:35;;;;;;;5.45;4.95;;;27.70;99.90;;;;;;5074633;28;20212;-74
2021/06/27 10:04:03;;;;;;;4.97;4.57;;;27.50;99.90;;;;;;5060627;28;20198;-74
2021/06/27 10:06:31;;;;;;;7.07;5.32;;;26.80;99.90;;;;;;5055189;28;20203;-74
2021/06/27 10:09:10;;;;;;;5.40;4.90;;;26.70;99.90;;;;;;5065550;28;20670;-74
2021/06/27 10:11:38;;;;;;;5.10;4.60;;;26.70;99.90;;;;;;5057816;28;20210;-74
2021/06/27 10:14:10;;;;;;;5.05;4.60;;;27.00;99.90;;;;;;5077481;28;20206;-74
2021/06/27 10:16:39;;;;;;;5.22;4.72;;;27.10;99.90;;;;;;5091481;28;20200;-74
2021/06/27 10:19:07;;;;;;;5.47;4.35;;;26.90;99.90;;;;;;5084431;28;20736;-74
2021/06/27 10:21:34;;;;;;;4.85;4.43;;;27.00;99.90;;;;;;5075755;28;20630;-74
2021/06/27 10:24:02;;;;;;;4.85;4.30;;;27.00;99.90;;;;;;5088715;28;20288;-74
2021/06/27 10:26:31;;;;;;;4.90;4.43;;;26.80;99.90;;;;;;5086069;28;20585;-74
2021/06/27 10:28:58;;;;;;;5.85;4.88;;;26.60;99.90;;;;;;5084258;28;20690;-74
2021/06/27 10:31:28;;;;;;;5.50;4.88;;;26.90;99.90;;;;;;5088160;28;20796;-74
2021/06/27 10:33:56;;;;;;;5.65;4.55;;;26.80;99.90;;;;;;5090719;28;20255;-74
2021/06/27 10:36:31;;;;;;;5.15;4.68;;;27.40;99.90;;;;;;5072509;28;20195;-74
2021/06/27 10:38:59;;;;;;;5.72;5.10;;;27.90;99.90;;;;;;5083621;28;20201;-74
2021/06/27 10:41:54;;;;;;;5.20;4.70;;;27.50;99.90;;;;;;5078710;28;20212;-74
2021/06/27 10:44:23;;;;;;;5.00;4.20;;;27.40;99.90;;;;;;5075815;28;20206;-74
2021/06/27 10:46:52;;;;;;;4.97;4.57;;;26.90;99.90;;;;;;5054070;28;20233;-74
2021/06/27 10:49:58;;;;;;;4.90;4.45;;;27.30;99.90;;;;;;5062453;28;20201;-74
2021/06/27 10:52:26;;;;;;;4.90;4.40;;;27.20;99.90;;;;;;5056119;28;20568;-74
2021/06/27 10:55:21;;;;;;;5.03;4.50;;;26.90;99.90;;;;;;5063071;28;20199;-74
2021/06/27 10:57:58;;;;;;;4.32;4.03;;;27.20;99.90;;;;;;5077887;28;20240;-74
2021/06/27 11:00:27;;;;;;;4.85;4.35;;;27.30;99.90;;;;;;5089200;28;20213;-74
2021/06/27 11:02:54;;;;;;;5.15;4.65;;;27.00;99.90;;;;;;5077239;28;20593;-72
2021/06/27 11:05:46;;;;;;;4.50;4.20;;;26.50;99.90;;;;;;5088234;28;20204;-72
2021/06/27 11:08:33;;;;;;;5.03;4.20;;;27.10;99.90;;;;;;5085940;28;20285;-71
2021/06/27 11:11:04;;;;;;;4.60;4.20;;;27.50;99.90;;;;;;5078183;28;20206;-71
2021/06/27 11:13:33;;;;;;;5.25;4.55;;;27.10;99.90;;;;;;5087984;28;20209;-72
2021/06/27 11:16:11;;;;;;;4.55;4.15;;;26.80;99.90;;;;;;5087909;28;20204;-72
2021/06/27 11:18:41;;;;;;;5.07;4.30;;;27.00;99.90;;;;;;5089328;28;20212;-71
2021/06/27 11:21:26;;;;;;;4.65;4.30;;;26.60;99.90;;;;;;5089789;28;20204;-71
2021/06/27 11:24:02;;;;;;;5.15;4.65;;;26.10;99.90;;;;;;5086874;28;20204;-71
2021/06/27 11:26:59;;;;;;;5.05;4.30;;;26.70;99.90;;;;;;5074058;28;20686;-71
2021/06/27 11:29:44;;;;;;;5.30;4.13;;;27.50;99.90;;;;;;5071561;28;20213;-72
2021/06/27 11:32:46;;;;;;;4.80;4.40;;;27.20;99.90;;;;;;5060976;28;20208;-72
2021/06/27 11:35:36;;;;;;;6.68;4.82;;;28.10;99.90;;;;;;5071967;28;20205;-71
2021/06/27 11:38:06;;;;;;;6.07;4.75;;;27.70;99.90;;;;;;5063727;28;20293;-71
2021/06/27 11:40:45;;;;;;;7.25;4.70;;;27.70;99.90;;;;;;5063438;28;20194;-71
2021/06/27 11:43:11;;;;;;;5.03;4.53;;;28.10;99.90;;;;;;5069232;28;20709;-71
2021/06/27 11:45:48;;;;;;;6.05;5.03;;;27.90;99.90;;;;;;5063892;28;20206;-71
2021/06/27 11:48:15;;;;;;;7.32;5.72;;;27.50;99.90;;;;;;5067115;28;20199;-71
2021/06/27 11:50:53;;;;;;;6.38;5.43;;;27.30;99.90;;;;;;5066617;28;20546;-71
2021/06/27 11:53:25;;;;;;;6.22;5.63;;;27.40;99.90;;;;;;5059662;28;20210;-71
2021/06/27 11:56:08;;;;;;;5.85;5.35;;;27.30;99.90;;;;;;5068638;28;20194;-71
2021/06/27 11:58:35;;;;;;;5.32;4.80;;;27.50;99.90;;;;;;5065040;28;20205;-71
2021/06/27 12:01:11;;;;;;;6.97;5.47;;;27.50;99.90;;;;;;5066432;28;20577;-71
2021/06/27 12:03:48;;;;;;;5.97;4.65;;;27.60;99.90;;;;;;5058900;28;20217;-71
2021/06/27 12:06:16;;;;;;;5.15;4.75;;;28.60;99.90;;;;;;5059277;28;20229;-71
2021/06/27 12:08:45;;;;;;;6.03;4.80;;;27.70;99.90;;;;;;5066946;28;20695;-71
2021/06/27 12:11:12;;;;;;;5.40;4.75;;;27.50;99.90;;;;;;5060516;28;20833;-71
2021/06/27 12:13:39;;;;;;;8.23;5.25;;;27.50;99.90;;;;;;5063059;28;20218;-71
2021/06/27 12:16:07;;;;;;;5.13;4.72;;;27.30;99.90;;;;;;5058138;28;20211;-71
2021/06/27 12:18:36;;;;;;;6.00;4.60;;;27.20;99.90;;;;;;5064101;28;20207;-71
2021/06/27 12:21:07;;;;;;;5.20;4.70;;;26.70;99.90;;;;;;5062207;28;20207;-71
2021/06/27 12:23:36;;;;;;;4.95;4.45;;;26.80;99.90;;;;;;5062552;28;20209;-71
2021/06/27 12:26:06;;;;;;;4.82;4.43;;;27.40;99.90;;;;;;5061703;28;20576;-71
2021/06/27 12:28:35;;;;;;;4.70;4.30;;;27.90;99.90;;;;;;5065554;28;20677;-71
2021/06/27 12:31:08;;;;;;;4.20;3.90;;;27.80;99.90;;;;;;5064228;28;20568;-71
2021/06/27 12:33:38;;;;;;;5.80;4.68;;;28.20;99.90;;;;;;5067005;28;20289;-72
2021/06/27 12:36:11;;;;;;;4.43;4.03;;;28.10;99.90;;;;;;5063454;28;20209;-71
2021/06/27 12:38:40;;;;;;;4.38;4.03;;;28.00;99.90;;;;;;5056489;28;20210;-71
2021/06/27 12:41:10;;;;;;;3.90;3.58;;;28.00;99.90;;;;;;5065730;28;20212;-71
2021/06/27 12:43:42;;;;;;;4.63;4.22;;;27.50;99.90;;;;;;5068650;28;20202;-71